MUC | München Airways

 METAR UND TAF INFORMATION

METAR FOR LESO
ADDS - METARS form results

(0516 UTC 23 March 2019)
Data provider http://aviationweather.gov/metar/data/
 
METAR text: LESO 230500Z 20003KT 160V240 CAVOK 07/03 Q1027
Conditions at: LESO (SAN SEBASTIAN/FU, ES) observed 0500 UTC 23 March 2019
Temperature: 7.0°C (45°F)
Dewpoint: 3.0°C (37°F) [RH = 76%]
Pressure (altimeter): 30.32 inches Hg (1027.0 mb)
Winds: from the SSW (200 degrees) at 3 MPH (3 knots; 1.5 m/s)
Visibility: 6 or more miles (10+ km)
Ceiling: ceiling and visibility are OK
Clouds: unknown
Weather: no significant weather observed at this time

METAR text: LESO 230430Z VRB02KT CAVOK 07/04 Q1027
Conditions at: LESO (SAN SEBASTIAN/FU, ES) observed 0430 UTC 23 March 2019
Temperature: 7.0°C (45°F)
Dewpoint: 4.0°C (39°F) [RH = 81%]
Pressure (altimeter): 30.32 inches Hg (1027.0 mb)
Winds: variable direction winds at 2 MPH (2 knots; 1.0 m/s)
Visibility: 6 or more miles (10+ km)
Ceiling: ceiling and visibility are OK
Clouds: unknown
Weather: no significant weather observed at this time

Forecast for: LESO (SAN SEBASTIAN/FU, ES)
Text: TAF LESO 222300Z 2300/2324 22005KT CAVOK TX20/2314Z TN07/2306Z
Forecast period: 0000 UTC 23 March 2019 to 0000 UTC 24 March 2019
Forecast type: FROM: standard forecast or significant change
Winds: from the SW (220 degrees) at 6 MPH (5 knots; 2.6 m/s)
Visibility: 6 or more miles 10+ km)
Ceiling: unknown
Clouds: missing
Weather: no significant weather forecast for this period
Text: PROB30 2313/2317 02010KT
Forecast period: 1300 to 1700 UTC 23 March 2019
Forecast type: PROBABLE: 30 percent likelihood of the following during this time
Winds: from the NNE (20 degrees) at 12 MPH (10 knots; 5.1 m/s)
Visibility: missing
Ceiling: unknown
Clouds: missing
Weather: no significant weather forecast for this period

 FLUGHAFENKARTE

 RUNWAY INFORMATION
Runway 04 Runway length 5755 ft Runway width 148 ft
Runway elevation 10 ft Runway displaced threshold 0 ft Runway heading 39
Runway 22 Runway length 5755 ft Runway width 148 ft
Runway elevation 15 ft Runway displaced threshold 0 ft Runway heading 219

 AIRPORT FREQUENCIES
Type TWR Name SAN SEBAST Frequency 119.85 MHZ

 AIRPORT NEAR NAVIGATION AIDS
Type NDB-DME Name San Sebastian Frequency 328 KHZ
Type VOR-DME Name San Sebastian Frequency 117900 KHZ